Forside
METAR-TAF:

METAR-TAF

Lufthavne :

Pella Municipal Airport

Pella, Iowa, USA

Breddekreds: 41-24N, længdekreds: 092-56W, højde: 270 m

Aktuelle vejr

Denne rapport blev lavet for 22 minutter siden, kl. 12:15 UTC
Vind 8 kt fra østsydøst
Temperatur 1°C
Fugtighed 100%
Tryk 1016 hPa
Sigt: 4.8 km
Overskyet i en højde af 200 ft
let regn

METAR: KPEA 241215Z AUTO 12008KT 3SM -RA OVC002 01/01 A3000 RMK AO2 T00110007

Tid: 06:37 (12:37 UTC)


TAF: fraværende

Vejrobservationer og prognoser fra mere end 4000 lufthavne (METAR og TAF).

De gule og røde prikker repræsenterer de meteorologiske stationer.

Flyt musen over at se navnet på stationen.

Så klik over at se vejr observationer og prognoser.

At skifte det kort: Klik på de grønne knapper med et sort kors for at zoome ind; på den grønne knap med en bindestreg for at zoome ud; eller på de grønne pile for tilstødende kort.


METAR-TAF: